createdAt,value
2023-04-29T00:00:47.134Z,100177.28
2023-04-29T00:10:49.782Z,100181.72
2023-04-29T00:20:51.977Z,100185.66
2023-04-29T00:30:54.202Z,100195.66
2023-04-29T00:40:56.837Z,100214.16
2023-04-29T00:50:59.357Z,100225.09
2023-04-29T01:13:07.217Z,100237.53
2023-04-29T01:23:10.116Z,100253.06
2023-04-29T01:33:57.789Z,100264.91
2023-04-29T01:44:01.711Z,100271.94
2023-04-29T01:54:05.406Z,100263.16
2023-04-29T02:04:07.867Z,100279.03
2023-04-29T02:14:12.545Z,100296.72
2023-04-29T02:24:14.843Z,100312.59
2023-04-29T02:34:17.190Z,100312.03
2023-04-29T02:44:19.305Z,100320.38
2023-04-29T02:54:21.498Z,100343.38
2023-04-29T03:04:25.530Z,100348.81
2023-04-29T03:14:28.046Z,100352.91
2023-04-29T03:24:30.413Z,100359.34
2023-04-29T03:34:43.531Z,100361.91
2023-04-29T03:45:14.888Z,100375.34
2023-04-29T03:55:18.113Z,100375.63
2023-04-29T04:05:21.412Z,100375.66
2023-04-29T04:15:28.955Z,100399.19
2023-04-29T04:25:32.963Z,100400.06
2023-04-29T04:35:59.488Z,100420.03
2023-04-29T04:46:12.878Z,100434.16
2023-04-29T04:56:19.669Z,100430.88
2023-04-29T05:06:22.242Z,100453.66
2023-04-29T05:16:25.741Z,100464.28
2023-04-29T05:26:28.109Z,100468.56
2023-04-29T05:36:34.773Z,100487.75
2023-04-29T05:46:37.733Z,100492.88
2023-04-29T05:56:40.425Z,100501.78
2023-04-29T06:06:43.588Z,100513.06
2023-04-29T06:16:53.670Z,100527.00
2023-04-29T06:26:55.788Z,100544.84
2023-04-29T06:37:01.431Z,100550.78
2023-04-29T06:47:24.972Z,100571.66
2023-04-29T06:57:39.973Z,100588.75
2023-04-29T07:07:42.100Z,100596.91
2023-04-29T07:17:44.452Z,100615.59
2023-04-29T07:27:46.817Z,100624.88
2023-04-29T07:37:49.127Z,100642.13
2023-04-29T07:47:51.380Z,100666.78
2023-04-29T07:57:53.708Z,100682.25
2023-04-29T08:07:56.074Z,100693.53
2023-04-29T08:18:00.966Z,100702.25
2023-04-29T08:28:03.067Z,100706.63
2023-04-29T08:38:06.819Z,100714.44
2023-04-29T08:48:09.590Z,100728.38
2023-04-29T08:58:12.973Z,100737.75
2023-04-29T09:08:15.050Z,100737.50
2023-04-29T09:18:41.910Z,100753.91
2023-04-29T09:28:45.050Z,100752.16
2023-04-29T09:38:58.052Z,100767.06
2023-04-29T09:49:00.940Z,100780.13
2023-04-29T09:59:09.443Z,100775.84
2023-04-29T10:09:16.359Z,100778.22
2023-04-29T10:19:35.186Z,100789.75
2023-04-29T10:29:38.722Z,100791.41
2023-04-29T10:40:00.880Z,100796.88
2023-04-29T10:50:04.610Z,100803.44
2023-04-29T11:00:07.337Z,100798.03
2023-04-29T11:10:09.510Z,100812.41
2023-04-29T11:20:14.165Z,100809.81
2023-04-29T11:30:16.982Z,100813.34
2023-04-29T11:40:19.253Z,100819.88
2023-04-29T11:50:21.386Z,100827.78
2023-04-29T12:00:24.629Z,100834.75
2023-04-29T12:10:26.895Z,100829.44
2023-04-29T12:20:29.269Z,100827.88
2023-04-29T12:30:34.598Z,100827.59
2023-04-29T12:40:36.867Z,100830.59
2023-04-29T12:50:39.642Z,100831.94
2023-04-29T13:00:41.783Z,100834.63
2023-04-29T13:10:44.208Z,100831.56
2023-04-29T13:20:46.336Z,100836.97
2023-04-29T13:30:48.609Z,100843.22
2023-04-29T13:40:55.135Z,100846.47
2023-04-29T14:11:09.252Z,100861.47
2023-04-29T14:21:11.771Z,100865.66
2023-04-29T14:31:15.149Z,100859.00
2023-04-29T14:41:17.315Z,100871.72
2023-04-29T14:51:19.422Z,100873.56
2023-04-29T15:01:21.619Z,100883.44
2023-04-29T15:11:24.116Z,100881.38
2023-04-29T15:21:27.032Z,100897.91
2023-04-29T15:31:30.883Z,100879.88
2023-04-29T15:41:33.158Z,100884.75
2023-04-29T15:51:35.313Z,100891.44
2023-04-29T16:01:37.701Z,100893.53
2023-04-29T16:11:39.981Z,100903.72
2023-04-29T16:21:45.489Z,100904.47
2023-04-29T16:31:47.673Z,100918.06
2023-04-29T16:41:49.794Z,100907.38
2023-04-29T16:51:52.310Z,100915.09
2023-04-29T17:01:55.283Z,100916.03
2023-04-29T17:11:57.971Z,100921.00
2023-04-29T17:22:00.050Z,100931.22
2023-04-29T17:32:09.873Z,100931.50
2023-04-29T17:42:12.012Z,100928.44
2023-04-29T17:52:15.099Z,100936.94
2023-04-29T18:02:17.122Z,100943.16
2023-04-29T18:12:19.232Z,100949.19
2023-04-29T18:22:21.304Z,100953.75
2023-04-29T18:32:23.534Z,100958.75
2023-04-29T18:42:25.910Z,100970.72
2023-04-29T18:52:27.972Z,100960.75
2023-04-29T19:02:30.701Z,100967.41
2023-04-29T19:12:32.831Z,100971.22
2023-04-29T19:22:35.014Z,100985.47
2023-04-29T19:32:37.217Z,100996.69
2023-04-29T19:42:40.602Z,101000.56
2023-04-29T19:52:42.801Z,100997.63
2023-04-29T20:02:45.147Z,101005.09
2023-04-29T20:12:47.530Z,101013.63
2023-04-29T20:22:49.740Z,101033.81
2023-04-29T20:32:52.177Z,101045.09
2023-04-29T20:42:54.197Z,101054.34
2023-04-29T20:52:56.712Z,101063.47
2023-04-29T21:02:58.864Z,101075.94
2023-04-29T21:13:01.201Z,101079.28
2023-04-29T21:23:03.348Z,101084.59
2023-04-29T21:33:05.557Z,101101.16
2023-04-29T21:43:08.671Z,101116.34
2023-04-29T21:53:13.761Z,101127.34
2023-04-29T22:03:17.407Z,101123.41
2023-04-29T22:13:19.477Z,101142.94
2023-04-29T22:23:22.575Z,101150.25
2023-04-29T22:33:24.634Z,101155.13
2023-04-29T22:43:26.772Z,101178.63
2023-04-29T22:53:28.856Z,101166.78
2023-04-29T23:03:30.885Z,101170.19
2023-04-29T23:13:33.015Z,101188.47
2023-04-29T23:23:35.145Z,101198.97
2023-04-29T23:33:37.234Z,101215.28
2023-04-29T23:43:39.620Z,101208.06
2023-04-29T23:53:41.753Z,101210.78
